createdAt,value
2019-03-23T00:00:13.924Z,160.52
2019-03-23T00:02:43.102Z,164.67
2019-03-23T00:05:13.929Z,177.38
2019-03-23T00:07:43.230Z,192.87
2019-03-23T00:10:12.523Z,179.87
2019-03-23T00:12:41.724Z,165.92
2019-03-23T00:15:11.692Z,177.47
2019-03-23T00:17:40.871Z,164.45
2019-03-23T00:20:10.057Z,113.85
2019-03-23T00:22:39.257Z,135.28
2019-03-23T00:25:08.434Z,154.15
2019-03-23T00:27:37.645Z,151.97
2019-03-23T00:30:12.737Z,156.02
2019-03-23T00:32:41.975Z,143.37
2019-03-23T00:35:11.300Z,149.30
2019-03-23T00:37:40.555Z,181.78
2019-03-23T00:40:10.156Z,261.65
2019-03-23T00:42:39.346Z,306.63
2019-03-23T00:45:09.255Z,288.37
2019-03-23T00:47:38.495Z,232.22
2019-03-23T00:50:08.519Z,255.75
2019-03-23T00:52:37.704Z,230.05
2019-03-23T00:55:07.742Z,205.43
2019-03-23T00:57:36.995Z,168.13
2019-03-23T01:00:08.513Z,173.15
2019-03-23T01:02:37.767Z,99.17
2019-03-23T01:05:07.755Z,184.05
2019-03-23T01:07:36.996Z,172.75
2019-03-23T01:10:08.400Z,214.82
2019-03-23T01:12:37.594Z,196.90
2019-03-23T01:15:09.023Z,182.02
2019-03-23T01:17:38.250Z,158.57
2019-03-23T01:20:09.686Z,166.37
2019-03-23T01:22:39.010Z,162.17
2019-03-23T01:25:09.687Z,161.85
2019-03-23T01:27:38.872Z,138.50
2019-03-23T01:30:11.497Z,127.40
2019-03-23T01:32:40.717Z,137.52
2019-03-23T01:35:09.984Z,132.87
2019-03-23T01:37:39.153Z,111.95
2019-03-23T01:40:08.623Z,94.80
2019-03-23T01:42:37.809Z,114.50
2019-03-23T01:45:09.743Z,111.12
2019-03-23T01:47:39.015Z,78.15
2019-03-23T01:50:09.030Z,93.37
2019-03-23T01:52:38.228Z,88.55
2019-03-23T01:55:07.938Z,85.17
2019-03-23T01:57:37.146Z,82.65
2019-03-23T02:00:09.285Z,74.87
2019-03-23T02:02:38.543Z,85.32
2019-03-23T02:05:08.048Z,95.17
2019-03-23T02:07:37.278Z,96.10
2019-03-23T02:10:07.699Z,90.32
2019-03-23T02:12:36.877Z,89.47
2019-03-23T02:15:07.792Z,93.52
2019-03-23T02:17:37.014Z,92.27
2019-03-23T02:20:09.177Z,85.83
2019-03-23T02:22:38.692Z,95.25
2019-03-23T02:25:08.251Z,95.28
2019-03-23T02:27:37.434Z,106.67
2019-03-23T02:30:09.619Z,120.08
2019-03-23T02:32:38.840Z,107.40
2019-03-23T02:35:08.432Z,111.05
2019-03-23T02:37:37.698Z,101.72
2019-03-23T02:40:08.389Z,102.30
2019-03-23T02:42:37.600Z,112.75
2019-03-23T02:45:09.195Z,112.97
2019-03-23T02:47:40.067Z,116.37
2019-03-23T02:50:10.241Z,116.05
2019-03-23T02:52:39.466Z,114.37
2019-03-23T02:55:09.692Z,124.78
2019-03-23T02:57:39.112Z,110.75
2019-03-23T03:00:10.871Z,119.35
2019-03-23T03:02:40.052Z,92.62
2019-03-23T03:05:09.373Z,113.57
2019-03-23T03:07:42.421Z,102.72
2019-03-23T03:10:11.100Z,116.53
2019-03-23T03:12:40.328Z,108.55
2019-03-23T03:15:10.065Z,117.30
2019-03-23T03:17:39.262Z,110.40
2019-03-23T03:20:09.717Z,116.47
2019-03-23T03:22:38.906Z,112.20
2019-03-23T03:25:08.657Z,120.55
2019-03-23T03:27:37.883Z,142.00
2019-03-23T03:30:10.031Z,143.47
2019-03-23T03:32:39.199Z,135.82
2019-03-23T03:35:08.505Z,138.18
2019-03-23T03:37:37.680Z,124.65
2019-03-23T03:40:08.609Z,125.65
2019-03-23T03:42:37.929Z,118.90
2019-03-23T03:45:07.844Z,114.97
2019-03-23T03:47:37.032Z,109.60
2019-03-23T03:50:07.362Z,110.32
2019-03-23T03:52:36.648Z,108.67
2019-03-23T03:55:06.695Z,100.58
2019-03-23T03:57:35.897Z,95.03
2019-03-23T04:00:08.686Z,100.72
2019-03-23T04:02:38.437Z,103.62
2019-03-23T04:05:07.630Z,99.92
2019-03-23T04:07:36.824Z,100.87
2019-03-23T04:10:08.162Z,94.83
2019-03-23T04:12:37.465Z,103.85
2019-03-23T04:15:07.961Z,88.45
2019-03-23T04:17:37.136Z,95.75
2019-03-23T04:20:06.839Z,96.17
2019-03-23T04:22:36.034Z,102.90
2019-03-23T04:25:09.523Z,97.97
2019-03-23T04:27:38.965Z,91.32
2019-03-23T04:30:10.357Z,91.20
2019-03-23T04:32:39.714Z,93.30
2019-03-23T04:35:09.033Z,99.92
2019-03-23T04:37:38.311Z,100.47
2019-03-23T04:40:12.052Z,92.85
2019-03-23T04:42:41.386Z,84.40
2019-03-23T04:45:11.052Z,101.80
2019-03-23T04:47:40.364Z,82.70
2019-03-23T04:50:10.853Z,94.85
2019-03-23T04:52:40.212Z,94.58
2019-03-23T04:55:12.001Z,99.42
2019-03-23T04:57:41.264Z,91.92
2019-03-23T05:00:13.183Z,98.00
2019-03-23T05:02:42.584Z,97.05
2019-03-23T05:05:11.965Z,92.47
2019-03-23T05:07:41.362Z,85.50
2019-03-23T05:10:12.086Z,91.75
2019-03-23T05:12:41.297Z,96.42
2019-03-23T05:15:10.693Z,113.25
2019-03-23T05:17:39.964Z,123.47
2019-03-23T05:20:10.758Z,112.75
2019-03-23T05:22:40.192Z,111.65
2019-03-23T05:25:12.668Z,112.50
2019-03-23T05:27:41.916Z,111.97
2019-03-23T05:30:11.192Z,102.05
2019-03-23T05:32:40.465Z,103.00
2019-03-23T05:35:09.848Z,110.55
2019-03-23T05:37:39.188Z,105.47
2019-03-23T05:40:08.536Z,109.45
2019-03-23T05:42:37.907Z,104.20
2019-03-23T05:45:07.095Z,114.57
2019-03-23T05:47:36.357Z,112.10
2019-03-23T05:50:07.240Z,126.45
2019-03-23T05:52:36.493Z,124.07
2019-03-23T05:55:06.327Z,130.60
2019-03-23T05:57:35.745Z,118.75
2019-03-23T06:00:07.499Z,98.90
2019-03-23T06:02:36.773Z,68.17
2019-03-23T06:05:07.147Z,59.50
2019-03-23T06:07:36.486Z,54.45
2019-03-23T06:10:06.758Z,36.63
2019-03-23T06:12:36.148Z,45.98
2019-03-23T06:15:05.995Z,21.48
2019-03-23T06:17:35.533Z,31.05
2019-03-23T06:20:06.525Z,25.40
2019-03-23T06:22:36.004Z,39.83
2019-03-23T06:25:08.129Z,34.75
2019-03-23T06:30:09.021Z,54.42
2019-03-23T06:35:07.785Z,45.25
2019-03-23T06:37:37.219Z,52.50
2019-03-23T06:40:11.017Z,27.52
2019-03-23T06:42:40.295Z,37.33
2019-03-23T06:45:10.578Z,23.25
2019-03-23T06:47:39.975Z,25.40
2019-03-23T06:50:12.673Z,20.80
2019-03-23T06:52:42.014Z,23.50
2019-03-23T06:55:11.821Z,26.93
2019-03-23T06:57:41.102Z,19.55
2019-03-23T07:00:13.109Z,31.33
2019-03-23T07:02:42.399Z,21.23
2019-03-23T07:05:11.819Z,16.97
2019-03-23T07:07:41.205Z,18.12
2019-03-23T07:10:12.297Z,18.20
2019-03-23T07:12:41.593Z,15.03
2019-03-23T07:15:19.920Z,16.40
2019-03-23T07:17:42.993Z,19.73
2019-03-23T07:20:14.253Z,22.50
2019-03-23T07:22:44.179Z,17.02
2019-03-23T07:25:13.572Z,18.60
2019-03-23T07:27:42.903Z,19.50
2019-03-23T07:30:17.474Z,17.15
2019-03-23T07:32:46.719Z,15.38
2019-03-23T07:35:16.099Z,11.63
2019-03-23T07:37:45.377Z,14.68
2019-03-23T07:40:14.624Z,13.22
2019-03-23T07:42:44.128Z,10.93
2019-03-23T07:45:14.975Z,19.98
2019-03-23T07:47:44.287Z,18.02
2019-03-23T07:50:14.472Z,17.67
2019-03-23T07:52:44.869Z,24.25
2019-03-23T07:55:16.123Z,19.30
2019-03-23T07:57:45.418Z,16.40
2019-03-23T08:00:20.832Z,21.57
2019-03-23T08:02:50.935Z,14.23
2019-03-23T08:05:21.631Z,13.62
2019-03-23T08:07:51.140Z,11.08
2019-03-23T08:10:31.063Z,12.85
2019-03-23T08:13:00.317Z,8.98
2019-03-23T08:15:30.062Z,9.38
2019-03-23T08:17:59.314Z,14.60
2019-03-23T08:20:28.592Z,13.45
2019-03-23T08:22:57.765Z,10.43
2019-03-23T08:25:27.125Z,10.90
2019-03-23T08:27:56.493Z,10.45
2019-03-23T08:30:25.676Z,11.00
2019-03-23T08:32:55.176Z,11.35
2019-03-23T08:35:24.446Z,9.33
2019-03-23T08:37:53.766Z,9.03
2019-03-23T08:40:23.236Z,13.15
2019-03-23T08:42:52.562Z,8.10
2019-03-23T08:45:21.937Z,7.50
2019-03-23T08:47:51.200Z,10.65
2019-03-23T08:50:20.483Z,7.85
2019-03-23T08:52:49.847Z,11.83
2019-03-23T08:55:19.298Z,11.80
2019-03-23T08:57:48.557Z,6.55
2019-03-23T09:00:17.943Z,6.72
2019-03-23T09:02:47.400Z,5.85
2019-03-23T09:05:16.655Z,8.93
2019-03-23T09:07:45.980Z,7.33
2019-03-23T09:10:15.591Z,7.65
2019-03-23T09:12:44.974Z,7.00
2019-03-23T09:15:14.249Z,8.78
2019-03-23T09:17:43.633Z,7.55
2019-03-23T09:20:12.967Z,8.45
2019-03-23T09:22:42.298Z,10.75
2019-03-23T09:25:11.575Z,8.30
2019-03-23T09:27:40.910Z,9.50
2019-03-23T09:30:11.940Z,9.50
2019-03-23T09:32:41.149Z,7.72
2019-03-23T09:35:10.796Z,6.53
2019-03-23T09:37:40.212Z,8.38
2019-03-23T09:40:11.411Z,9.05
2019-03-23T09:42:40.849Z,8.48
2019-03-23T09:45:10.140Z,7.92
2019-03-23T09:47:39.569Z,5.75
2019-03-23T09:50:10.626Z,5.58
2019-03-23T09:52:39.965Z,7.25
2019-03-23T09:55:09.199Z,7.55
2019-03-23T09:57:38.442Z,7.60
2019-03-23T10:00:09.754Z,11.18
2019-03-23T10:02:39.150Z,9.27
2019-03-23T10:05:08.394Z,8.28
2019-03-23T10:07:37.667Z,8.18
2019-03-23T10:10:07.660Z,6.97
2019-03-23T10:12:37.060Z,7.92
2019-03-23T10:15:07.259Z,11.10
2019-03-23T10:17:36.446Z,10.38
2019-03-23T10:20:06.771Z,8.53
2019-03-23T10:22:36.084Z,7.33
2019-03-23T10:25:08.490Z,7.65
2019-03-23T10:27:37.756Z,9.30
2019-03-23T10:30:10.801Z,9.00
2019-03-23T10:32:40.190Z,7.62
2019-03-23T10:35:10.626Z,7.47
2019-03-23T10:37:39.880Z,8.70
2019-03-23T10:40:10.831Z,8.00
2019-03-23T10:42:40.174Z,10.98
2019-03-23T10:45:10.528Z,9.15
2019-03-23T10:50:39.821Z,12.82
2019-03-23T10:53:09.139Z,8.90
2019-03-23T10:55:38.377Z,10.13
2019-03-23T10:58:07.616Z,8.98
2019-03-23T11:00:36.857Z,10.82
2019-03-23T11:03:06.045Z,7.33
2019-03-23T11:05:35.579Z,8.08
2019-03-23T11:08:04.828Z,10.10
2019-03-23T11:10:41.590Z,9.03
2019-03-23T11:13:05.146Z,9.68
2019-03-23T11:15:34.330Z,9.45
2019-03-23T11:28:45.909Z,6.53
2019-03-23T11:31:15.197Z,8.50
2019-03-23T11:33:44.378Z,9.80
2019-03-23T11:36:14.830Z,10.00
2019-03-23T11:38:44.146Z,8.43
2019-03-23T11:41:13.404Z,7.53
2019-03-23T11:43:42.822Z,8.60
2019-03-23T11:46:13.638Z,7.37
2019-03-23T11:48:43.375Z,9.43
2019-03-23T11:51:12.551Z,8.53
2019-03-23T11:53:42.241Z,9.13
2019-03-23T11:56:11.379Z,7.67
2019-03-23T11:58:40.864Z,6.50
2019-03-23T12:01:10.183Z,6.20
2019-03-23T12:03:39.388Z,7.20
2019-03-23T12:06:08.755Z,6.80
2019-03-23T12:08:38.382Z,5.72
2019-03-23T12:11:08.533Z,6.97
2019-03-23T12:13:37.774Z,5.72
2019-03-23T12:16:07.025Z,5.47
2019-03-23T12:18:36.329Z,9.35
2019-03-23T12:21:05.513Z,5.90
2019-03-23T12:23:34.755Z,6.25
2019-03-23T12:26:04.037Z,8.65
2019-03-23T12:28:33.391Z,7.60
2019-03-23T12:31:02.692Z,7.35
2019-03-23T12:33:31.865Z,5.55
2019-03-23T12:36:01.063Z,6.97
2019-03-23T12:38:30.243Z,6.42
2019-03-23T12:41:10.006Z,7.37
2019-03-23T12:43:30.431Z,13.98
2019-03-23T12:45:59.687Z,5.87
2019-03-23T12:48:28.928Z,6.20
2019-03-23T12:50:58.112Z,7.83
2019-03-23T12:53:27.289Z,5.08
2019-03-23T12:55:56.697Z,3.58
2019-03-23T12:58:25.961Z,5.55
2019-03-23T13:00:55.330Z,5.33
2019-03-23T13:03:24.517Z,5.67
2019-03-23T13:05:53.839Z,7.60
2019-03-23T13:08:23.424Z,8.55
2019-03-23T13:10:52.592Z,3.47
2019-03-23T13:13:21.791Z,5.35
2019-03-23T13:15:51.153Z,6.90
2019-03-23T13:18:27.073Z,5.08
2019-03-23T13:20:51.317Z,5.40
2019-03-23T13:23:20.669Z,5.22
2019-03-23T13:25:49.940Z,5.78
2019-03-23T13:28:19.264Z,4.83
2019-03-23T13:30:48.570Z,5.83
2019-03-23T13:33:17.809Z,5.15
2019-03-23T13:35:47.454Z,8.70
2019-03-23T13:38:16.765Z,6.37
2019-03-23T13:40:46.054Z,5.42
2019-03-23T13:43:15.399Z,6.17
2019-03-23T13:45:44.608Z,3.75
2019-03-23T13:48:23.827Z,5.00
2019-03-23T13:50:53.296Z,7.22
2019-03-23T13:53:22.490Z,3.87
2019-03-23T13:55:51.711Z,6.33
2019-03-23T13:58:20.994Z,16.02
2019-03-23T14:00:50.175Z,7.70
2019-03-23T14:03:19.516Z,6.42
2019-03-23T14:05:49.713Z,5.75
2019-03-23T14:08:19.005Z,8.13
2019-03-23T14:10:48.769Z,22.90
2019-03-23T14:13:18.023Z,12.45
2019-03-23T14:15:47.343Z,7.22
2019-03-23T14:18:17.496Z,14.43
2019-03-23T14:20:46.855Z,10.68
2019-03-23T14:23:16.159Z,8.18
2019-03-23T14:25:45.337Z,5.97
2019-03-23T14:28:14.512Z,7.20
2019-03-23T14:30:43.849Z,7.58
2019-03-23T14:33:13.094Z,6.78
2019-03-23T14:35:42.331Z,9.60
2019-03-23T14:38:11.741Z,6.42
2019-03-23T14:40:41.444Z,7.33
2019-03-23T14:43:10.781Z,6.12
2019-03-23T14:45:40.026Z,7.22
2019-03-23T14:48:09.228Z,11.20
2019-03-23T14:50:38.492Z,9.43
2019-03-23T14:53:08.004Z,6.03
2019-03-23T14:55:37.551Z,6.42
2019-03-23T14:58:06.835Z,7.00
2019-03-23T15:00:36.605Z,6.33
2019-03-23T15:03:05.783Z,9.48
2019-03-23T15:05:35.052Z,9.73
2019-03-23T15:08:04.241Z,6.40
2019-03-23T15:10:33.453Z,7.10
2019-03-23T15:13:02.702Z,6.10
2019-03-23T15:15:31.925Z,15.35
2019-03-23T15:18:01.106Z,10.48
2019-03-23T15:20:30.338Z,6.60
2019-03-23T15:22:59.586Z,8.60
2019-03-23T15:25:28.853Z,61.53
2019-03-23T15:27:58.443Z,51.65
2019-03-23T15:30:27.667Z,33.63
2019-03-23T15:32:56.932Z,9.95
2019-03-23T15:35:26.118Z,9.25
2019-03-23T15:37:55.356Z,8.15
2019-03-23T15:40:24.825Z,8.55
2019-03-23T15:42:54.047Z,8.18
2019-03-23T15:45:23.567Z,11.35
2019-03-23T15:47:52.754Z,10.68
2019-03-23T15:50:22.101Z,9.03
2019-03-23T15:52:51.504Z,8.23
2019-03-23T15:55:20.959Z,12.88
2019-03-23T15:57:50.207Z,11.83
2019-03-23T16:00:19.415Z,17.00
2019-03-23T16:02:48.617Z,12.78
2019-03-23T16:05:17.845Z,26.02
2019-03-23T16:07:47.094Z,26.90
2019-03-23T16:10:16.355Z,29.65
2019-03-23T16:12:45.584Z,19.25
2019-03-23T16:15:14.840Z,71.87
2019-03-23T16:17:44.069Z,155.03
2019-03-23T16:20:14.180Z,75.57
2019-03-23T16:22:43.461Z,87.53
2019-03-23T16:25:12.832Z,56.23
2019-03-23T16:27:42.145Z,58.08
2019-03-23T16:30:11.777Z,58.95
2019-03-23T16:32:41.013Z,40.45
2019-03-23T16:35:10.272Z,37.63
2019-03-23T16:37:41.536Z,26.62
2019-03-23T16:40:12.082Z,43.52
2019-03-23T16:42:45.603Z,36.88
2019-03-23T16:45:12.882Z,21.65
2019-03-23T16:47:42.076Z,19.87
2019-03-23T16:50:11.261Z,11.30
2019-03-23T16:52:40.469Z,15.03
2019-03-23T16:55:09.919Z,13.25
2019-03-23T16:57:39.126Z,12.82
2019-03-23T17:00:10.139Z,13.45
2019-03-23T17:02:39.341Z,11.28
2019-03-23T17:05:08.602Z,15.30
2019-03-23T17:07:38.122Z,18.62
2019-03-23T17:10:07.337Z,18.27
2019-03-23T17:12:36.510Z,19.85
2019-03-23T17:15:07.253Z,34.03
2019-03-23T17:17:37.553Z,27.67
2019-03-23T17:20:06.757Z,40.15
2019-03-23T17:22:35.967Z,42.08
2019-03-23T17:25:06.803Z,52.78
2019-03-23T17:27:35.975Z,49.95
2019-03-23T17:30:06.961Z,43.48
2019-03-23T17:32:37.542Z,58.75
2019-03-23T17:35:09.767Z,82.95
2019-03-23T17:37:38.966Z,102.27
2019-03-23T17:40:08.350Z,90.40
2019-03-23T17:42:37.547Z,95.42
2019-03-23T17:45:09.843Z,140.97
2019-03-23T17:47:39.083Z,166.80
2019-03-23T17:50:08.329Z,144.65
2019-03-23T17:52:37.505Z,157.27
2019-03-23T17:55:06.967Z,157.75
2019-03-23T17:57:36.189Z,138.12
2019-03-23T18:00:08.692Z,72.92
2019-03-23T18:02:37.965Z,64.90
2019-03-23T18:05:07.739Z,67.80
2019-03-23T18:07:36.912Z,68.25
2019-03-23T18:10:08.240Z,63.98
2019-03-23T18:12:37.527Z,53.90
2019-03-23T18:15:07.785Z,38.80
2019-03-23T18:17:36.882Z,50.40
2019-03-23T18:20:06.183Z,44.70
2019-03-23T18:22:35.431Z,39.15
2019-03-23T18:25:05.369Z,53.15
2019-03-23T18:27:34.611Z,60.00
2019-03-23T18:30:06.251Z,59.33
2019-03-23T18:32:35.575Z,71.47
2019-03-23T18:35:06.549Z,65.45
2019-03-23T18:37:35.736Z,69.58
2019-03-23T18:40:08.266Z,63.65
2019-03-23T18:45:06.746Z,67.22
2019-03-23T18:47:35.941Z,74.32
2019-03-23T18:50:06.664Z,78.75
2019-03-23T18:52:35.893Z,74.07
2019-03-23T18:55:06.750Z,76.55
2019-03-23T18:57:36.079Z,97.45
2019-03-23T19:00:07.469Z,97.67
2019-03-23T19:02:36.788Z,72.53
2019-03-23T19:05:06.170Z,62.73
2019-03-23T19:07:35.432Z,57.95
2019-03-23T19:10:05.693Z,65.35
2019-03-23T19:12:35.149Z,89.97
2019-03-23T19:15:06.364Z,116.05
2019-03-23T19:17:35.912Z,90.53
2019-03-23T19:20:08.455Z,105.58
2019-03-23T19:22:37.882Z,94.92
2019-03-23T19:25:15.168Z,80.22
2019-03-23T19:27:38.596Z,56.08
2019-03-23T19:30:08.682Z,48.87
2019-03-23T19:32:38.047Z,53.90
2019-03-23T19:35:07.450Z,50.65
2019-03-23T19:37:38.826Z,64.30
2019-03-23T19:40:08.210Z,53.98
2019-03-23T19:42:37.799Z,62.70
2019-03-23T19:45:07.548Z,68.65
2019-03-23T19:47:37.319Z,59.53
2019-03-23T19:50:07.309Z,58.75
2019-03-23T19:52:36.655Z,51.63
2019-03-23T19:55:07.812Z,45.48
2019-03-23T19:57:37.233Z,46.83
2019-03-23T20:00:07.974Z,73.22
2019-03-23T20:02:37.546Z,68.22
2019-03-23T20:05:07.078Z,63.35
2019-03-23T20:07:38.098Z,60.67
2019-03-23T20:10:10.916Z,72.32
2019-03-23T20:12:40.276Z,47.80
2019-03-23T20:15:09.748Z,54.80
2019-03-23T20:17:39.259Z,59.40
2019-03-23T20:20:09.081Z,59.88
2019-03-23T20:22:38.579Z,72.40
2019-03-23T20:25:08.137Z,70.30
2019-03-23T20:27:37.469Z,64.75
2019-03-23T20:30:09.631Z,64.87
2019-03-23T20:32:39.030Z,61.30
2019-03-23T20:35:08.535Z,59.65
2019-03-23T20:37:37.984Z,61.53
2019-03-23T20:40:07.561Z,72.70
2019-03-23T20:42:37.259Z,61.53
2019-03-23T20:45:07.637Z,50.55
2019-03-23T20:47:37.527Z,61.55
2019-03-23T20:50:07.934Z,72.17
2019-03-23T20:52:37.733Z,76.30
2019-03-23T20:55:16.564Z,66.20
2019-03-23T20:57:46.044Z,58.78
2019-03-23T21:00:15.901Z,58.83
2019-03-23T21:02:45.328Z,64.30
2019-03-23T21:05:14.984Z,55.03
2019-03-23T21:07:44.356Z,55.48
2019-03-23T21:10:13.777Z,57.10
2019-03-23T21:12:43.504Z,49.58
2019-03-23T21:15:12.997Z,48.08
2019-03-23T21:17:50.988Z,43.73
2019-03-23T21:20:13.758Z,49.65
2019-03-23T21:22:43.239Z,49.77
2019-03-23T21:25:12.639Z,47.15
2019-03-23T21:27:42.350Z,52.58
2019-03-23T21:30:14.385Z,60.88
2019-03-23T21:32:43.765Z,48.70
2019-03-23T21:35:15.583Z,39.73
2019-03-23T21:37:44.325Z,47.62
2019-03-23T21:40:13.719Z,43.42
2019-03-23T21:42:43.295Z,42.05
2019-03-23T21:45:12.792Z,42.78
2019-03-23T21:47:42.191Z,45.12
2019-03-23T21:50:12.486Z,44.75
2019-03-23T21:52:42.050Z,49.40
2019-03-23T21:55:11.630Z,48.25
2019-03-23T21:57:41.069Z,47.85
2019-03-23T22:00:10.635Z,44.93
2019-03-23T22:02:40.006Z,43.40
2019-03-23T22:05:09.487Z,45.40
2019-03-23T22:07:38.890Z,42.43
2019-03-23T22:10:08.283Z,45.23
2019-03-23T22:12:38.151Z,45.95
2019-03-23T22:15:08.648Z,47.67
2019-03-23T22:17:37.968Z,41.77
2019-03-23T22:20:08.641Z,40.10
2019-03-23T22:22:38.075Z,38.90
2019-03-23T22:25:08.350Z,45.65
2019-03-23T22:27:37.940Z,42.75
2019-03-23T22:30:10.798Z,41.50
2019-03-23T22:32:41.568Z,46.55
2019-03-23T22:35:10.966Z,43.98
2019-03-23T22:37:40.673Z,47.27
2019-03-23T22:40:13.183Z,45.25
2019-03-23T22:42:42.689Z,43.52
2019-03-23T22:45:12.223Z,51.18
2019-03-23T22:47:41.608Z,51.23
2019-03-23T22:50:11.231Z,47.65
2019-03-23T22:52:40.995Z,46.33
2019-03-23T22:55:10.441Z,49.48
2019-03-23T22:57:39.845Z,53.10
2019-03-23T23:00:16.587Z,54.85
2019-03-23T23:02:46.155Z,53.52
2019-03-23T23:05:15.750Z,57.35
2019-03-23T23:07:46.074Z,63.58
2019-03-23T23:10:15.433Z,62.10
2019-03-23T23:12:44.935Z,66.60
2019-03-23T23:15:14.236Z,62.27
2019-03-23T23:17:43.918Z,65.80
2019-03-23T23:20:13.211Z,72.75
2019-03-23T23:22:42.450Z,71.92
2019-03-23T23:25:11.962Z,70.80
2019-03-23T23:27:41.283Z,68.83
2019-03-23T23:30:11.036Z,70.32
2019-03-23T23:32:40.463Z,65.52
2019-03-23T23:35:09.967Z,62.35
2019-03-23T23:37:39.304Z,66.75
2019-03-23T23:40:08.555Z,62.25
2019-03-23T23:42:37.896Z,59.98
2019-03-23T23:45:15.345Z,58.08
2019-03-23T23:47:39.869Z,55.63
2019-03-23T23:50:09.235Z,47.65
2019-03-23T23:52:38.568Z,58.23
2019-03-23T23:55:07.980Z,45.45
2019-03-23T23:57:37.323Z,43.85
